Time;durP1;ratioP1;P1;durP2;ratioP2;P2;SDS_P1;SDS_P2;PMS_P1;PMS_P2;Temp;Humidity;BMP_temperature;BMP_pressure;BME280_temperature;BME280_humidity;BME280_pressure;Samples;Min_cycle;Max_cycle;Signal;HPM_P1;HPM_P2
2021/10/10 00:01:49;;;;;;;14.23;12.73;;;9.10;99.90;;;;;;5076304;28;20183;-52
2021/10/10 00:04:15;;;;;;;14.17;11.87;;;9.10;99.90;;;;;;5075893;28;20226;-53
2021/10/10 00:06:41;;;;;;;18.73;14.47;;;9.10;99.90;;;;;;5076064;28;20168;-55
2021/10/10 00:09:06;;;;;;;17.60;14.20;;;9.10;99.90;;;;;;5066429;28;20562;-55
2021/10/10 00:11:32;;;;;;;16.20;13.90;;;9.20;99.90;;;;;;5056029;28;20172;-51
2021/10/10 00:13:58;;;;;;;16.10;11.73;;;9.20;99.90;;;;;;5065309;28;20340;-52
2021/10/10 00:16:24;;;;;;;13.27;11.87;;;9.10;99.90;;;;;;5076077;28;20510;-55
2021/10/10 00:18:49;;;;;;;16.80;12.50;;;9.10;99.90;;;;;;5075732;28;20172;-55
2021/10/10 00:21:15;;;;;;;14.13;12.63;;;9.20;99.90;;;;;;5075682;28;20170;-54
2021/10/10 00:23:41;;;;;;;16.13;11.80;;;9.20;99.90;;;;;;5075676;28;20193;-59
2021/10/10 00:26:07;;;;;;;16.20;13.70;;;9.10;99.90;;;;;;5075490;28;20956;-57
2021/10/10 00:28:32;;;;;;;14.57;13.00;;;9.10;99.90;;;;;;5075483;28;20198;-56
2021/10/10 00:30:58;;;;;;;15.33;13.00;;;9.10;99.90;;;;;;5075143;28;20167;-55
2021/10/10 00:33:25;;;;;;;14.80;12.40;;;9.10;99.90;;;;;;5075607;28;20191;-52
2021/10/10 00:35:51;;;;;;;17.03;12.90;;;9.10;99.90;;;;;;5075539;28;20175;-53
2021/10/10 00:38:16;;;;;;;14.90;12.53;;;9.00;99.90;;;;;;5075627;28;20484;-53
2021/10/10 00:40:42;;;;;;;13.63;11.80;;;8.90;99.90;;;;;;5076409;28;20180;-54
2021/10/10 00:43:08;;;;;;;16.50;12.03;;;8.90;99.90;;;;;;5075183;28;20185;-53
2021/10/10 00:45:34;;;;;;;13.63;11.70;;;8.90;99.90;;;;;;5057388;28;20159;-56
2021/10/10 00:48:00;;;;;;;12.70;11.40;;;8.90;99.90;;;;;;5075363;28;20250;-54
2021/10/10 00:50:27;;;;;;;16.60;12.13;;;8.80;99.90;;;;;;5075424;28;20913;-56
2021/10/10 00:52:53;;;;;;;14.30;10.90;;;8.80;99.90;;;;;;5075064;28;20408;-54
2021/10/10 00:55:21;;;;;;;15.43;12.40;;;8.80;99.90;;;;;;5075100;28;20393;-54
2021/10/10 00:57:49;;;;;;;13.97;11.60;;;8.80;99.90;;;;;;5074994;28;20413;-54
2021/10/10 01:00:16;;;;;;;15.53;11.30;;;8.80;99.90;;;;;;5067056;28;20426;-53
2021/10/10 01:02:43;;;;;;;14.60;12.27;;;8.80;99.90;;;;;;5055195;28;20403;-54
2021/10/10 01:05:12;;;;;;;14.33;12.43;;;8.70;99.90;;;;;;5054499;28;20455;-53
2021/10/10 01:07:38;;;;;;;16.93;11.10;;;8.80;99.90;;;;;;5054704;28;20530;-50
2021/10/10 01:10:06;;;;;;;11.97;10.80;;;8.70;99.90;;;;;;5054719;28;20415;-54
2021/10/10 01:12:32;;;;;;;17.43;12.80;;;8.80;99.90;;;;;;5054625;28;20195;-55
2021/10/10 01:15:00;;;;;;;13.90;10.63;;;8.80;99.90;;;;;;5072397;28;20497;-53
2021/10/10 01:17:26;;;;;;;15.63;11.17;;;8.80;99.90;;;;;;5074547;28;20405;-56
2021/10/10 01:19:53;;;;;;;12.43;11.00;;;8.70;99.90;;;;;;5074497;28;20405;-55
2021/10/10 01:22:19;;;;;;;12.73;11.33;;;8.60;99.90;;;;;;5074443;28;20940;-51
2021/10/10 01:24:47;;;;;;;13.73;11.53;;;8.60;99.90;;;;;;5074663;28;20416;-53
2021/10/10 01:27:13;;;;;;;12.97;11.23;;;8.60;99.90;;;;;;5074270;28;20175;-57
2021/10/10 01:29:39;;;;;;;16.73;12.30;;;8.70;99.90;;;;;;5074071;28;20804;-55
2021/10/10 01:32:05;;;;;;;12.87;10.80;;;8.60;99.90;;;;;;5074272;28;20405;-54
2021/10/10 01:34:31;;;;;;;15.13;11.80;;;8.50;99.90;;;;;;5074234;28;20754;-53
2021/10/10 01:36:57;;;;;;;10.90;9.80;;;8.40;99.90;;;;;;5074226;28;20410;-55
2021/10/10 01:39:23;;;;;;;14.43;11.53;;;8.40;99.90;;;;;;5074541;28;20409;-53
2021/10/10 01:41:49;;;;;;;16.67;12.37;;;8.40;99.90;;;;;;5074489;28;20408;-55
2021/10/10 01:44:16;;;;;;;13.70;10.93;;;8.40;99.90;;;;;;5073684;28;20210;-55
2021/10/10 01:46:42;;;;;;;15.27;13.17;;;8.40;99.90;;;;;;5074100;28;20401;-56
2021/10/10 01:49:08;;;;;;;14.50;11.77;;;8.40;99.90;;;;;;5074194;28;20449;-53
2021/10/10 01:51:36;;;;;;;14.77;12.50;;;8.50;99.90;;;;;;5074151;28;20432;-56
2021/10/10 01:54:01;;;;;;;14.27;11.97;;;8.50;99.90;;;;;;5073773;28;20935;-56
2021/10/10 01:56:28;;;;;;;13.17;11.73;;;8.50;99.90;;;;;;5073772;28;20401;-49
2021/10/10 01:58:54;;;;;;;14.13;12.60;;;8.40;99.90;;;;;;5073594;28;20177;-56
2021/10/10 02:01:19;;;;;;;15.60;13.70;;;8.50;99.90;;;;;;5074000;28;20414;-56
2021/10/10 02:03:45;;;;;;;14.67;12.37;;;8.50;99.90;;;;;;5074497;28;20183;-55
2021/10/10 02:06:10;;;;;;;18.70;13.00;;;8.50;99.90;;;;;;5074229;28;20520;-50
2021/10/10 02:08:36;;;;;;;16.37;13.13;;;8.50;99.90;;;;;;5073820;28;20286;-52
2021/10/10 02:11:02;;;;;;;15.23;11.93;;;8.50;99.90;;;;;;5060433;28;20175;-50
2021/10/10 02:13:27;;;;;;;13.77;11.97;;;8.50;99.90;;;;;;5060033;28;20255;-49
2021/10/10 02:15:53;;;;;;;19.03;13.97;;;8.60;99.90;;;;;;5072878;28;20184;-52
2021/10/10 02:18:19;;;;;;;15.23;11.70;;;8.50;99.90;;;;;;5073425;28;20174;-52
2021/10/10 02:20:44;;;;;;;18.27;12.20;;;8.50;99.90;;;;;;5073782;28;20169;-52
2021/10/10 02:23:10;;;;;;;13.70;12.27;;;8.50;99.90;;;;;;5073813;28;20197;-52
2021/10/10 02:25:36;;;;;;;13.73;12.23;;;8.50;99.90;;;;;;5073676;28;20651;-57
2021/10/10 02:28:01;;;;;;;15.30;12.70;;;8.50;99.90;;;;;;5073078;28;20276;-53
2021/10/10 02:30:27;;;;;;;13.77;12.37;;;8.40;99.90;;;;;;5073138;28;20158;-57
2021/10/10 02:32:53;;;;;;;14.90;13.03;;;8.40;99.90;;;;;;5073474;28;20197;-53
2021/10/10 02:35:19;;;;;;;15.30;13.70;;;8.30;99.90;;;;;;5073516;28;20198;-55
2021/10/10 02:37:44;;;;;;;12.30;10.93;;;8.20;99.90;;;;;;5073433;28;20239;-53
2021/10/10 02:40:11;;;;;;;13.80;12.00;;;8.20;99.90;;;;;;5073204;28;20408;-57
2021/10/10 02:42:37;;;;;;;14.47;12.07;;;8.20;99.90;;;;;;5055420;28;20178;-53
2021/10/10 02:45:06;;;;;;;15.23;12.30;;;8.20;99.90;;;;;;5079213;22;20492;-57
2021/10/10 02:47:32;;;;;;;14.87;12.20;;;8.20;99.90;;;;;;5053356;28;20471;-58
2021/10/10 02:49:58;;;;;;;15.60;11.63;;;8.20;99.90;;;;;;5054012;28;20493;-54
2021/10/10 02:52:24;;;;;;;14.03;11.67;;;8.20;99.90;;;;;;5053277;28;20445;-55
2021/10/10 02:54:50;;;;;;;15.57;12.43;;;8.20;99.90;;;;;;5053212;28;20183;-53
2021/10/10 02:57:16;;;;;;;12.60;11.30;;;8.20;99.90;;;;;;5054653;28;20167;-58
2021/10/10 02:59:41;;;;;;;13.10;11.50;;;8.20;99.90;;;;;;5052608;28;20408;-58
2021/10/10 03:02:07;;;;;;;13.03;11.80;;;8.10;99.90;;;;;;5053136;28;20163;-56
2021/10/10 03:04:33;;;;;;;15.33;12.20;;;8.10;99.90;;;;;;5053802;28;20182;-57
2021/10/10 03:06:58;;;;;;;17.17;11.90;;;8.00;99.90;;;;;;5053428;28;20523;-55
2021/10/10 03:09:24;;;;;;;14.67;11.47;;;8.00;99.90;;;;;;5053376;28;20620;-56
2021/10/10 03:11:50;;;;;;;15.27;12.40;;;8.00;99.90;;;;;;5054072;28;20167;-58
2021/10/10 03:14:15;;;;;;;19.00;13.87;;;7.90;99.90;;;;;;5052703;28;20437;-57
2021/10/10 03:16:41;;;;;;;16.70;13.37;;;7.80;99.90;;;;;;5053414;28;20162;-57
2021/10/10 03:19:07;;;;;;;15.13;12.60;;;7.80;99.90;;;;;;5053418;28;20167;-57
2021/10/10 03:21:32;;;;;;;15.33;13.73;;;7.80;99.90;;;;;;5053212;28;20167;-58
2021/10/10 03:23:58;;;;;;;13.87;11.63;;;7.80;99.90;;;;;;5053190;28;20250;-56
2021/10/10 03:26:23;;;;;;;17.10;13.63;;;7.80;99.90;;;;;;5053248;28;20206;-54
2021/10/10 03:28:49;;;;;;;15.10;12.23;;;7.80;99.90;;;;;;5054151;28;20253;-57
2021/10/10 03:31:15;;;;;;;14.50;12.93;;;7.70;99.90;;;;;;5057038;28;20167;-55
2021/10/10 03:33:41;;;;;;;14.83;12.50;;;7.80;99.90;;;;;;5056979;28;20166;-58
2021/10/10 03:36:06;;;;;;;17.77;15.27;;;7.80;99.90;;;;;;5057033;28;20201;-56
2021/10/10 03:38:32;;;;;;;16.17;12.80;;;7.80;99.90;;;;;;5057169;28;20232;-56
2021/10/10 03:40:58;;;;;;;16.40;13.90;;;7.70;99.90;;;;;;5056940;28;20170;-58
2021/10/10 03:43:23;;;;;;;16.53;14.47;;;7.70;99.90;;;;;;5056898;28;20202;-56
2021/10/10 03:45:49;;;;;;;14.43;12.93;;;7.70;99.90;;;;;;5056237;28;20619;-56
2021/10/10 03:48:14;;;;;;;15.47;12.80;;;7.70;99.90;;;;;;5056676;28;20194;-57
2021/10/10 03:50:40;;;;;;;17.70;13.47;;;7.60;99.90;;;;;;5055991;28;20166;-60
2021/10/10 03:53:06;;;;;;;15.20;13.63;;;7.60;99.90;;;;;;5045549;28;20670;-58
2021/10/10 03:55:36;;;;;;;19.33;15.77;;;7.50;99.90;;;;;;5056849;28;20187;-56
2021/10/10 03:58:03;;;;;;;16.43;13.57;;;7.60;99.90;;;;;;5057128;28;20173;-58
2021/10/10 04:00:31;;;;;;;16.03;14.33;;;7.60;99.90;;;;;;5056089;28;20406;-56
2021/10/10 04:02:59;;;;;;;20.77;15.73;;;7.60;99.90;;;;;;5056572;28;20405;-55
2021/10/10 04:05:46;;;;;;;16.83;14.40;;;7.60;99.90;;;;;;5055516;28;20429;-56
2021/10/10 04:08:10;;;;;;;17.20;15.37;;;7.60;99.90;;;;;;5056403;28;20863;-56
2021/10/10 04:10:36;;;;;;;19.67;14.57;;;7.50;99.90;;;;;;5056475;28;20410;-58
2021/10/10 04:13:06;;;;;;;17.20;13.20;;;7.50;99.90;;;;;;5056449;28;20177;-57
2021/10/10 04:15:32;;;;;;;20.63;16.30;;;7.50;99.90;;;;;;5055634;28;20429;-54
2021/10/10 04:17:57;;;;;;;18.80;14.83;;;7.40;99.90;;;;;;5056396;28;20920;-57
2021/10/10 04:20:23;;;;;;;18.43;14.57;;;7.40;99.90;;;;;;5056085;28;20589;-58
2021/10/10 04:22:49;;;;;;;18.43;15.70;;;7.40;99.90;;;;;;5056010;28;20250;-58
2021/10/10 04:25:14;;;;;;;17.17;14.97;;;7.50;99.90;;;;;;5055755;28;20179;-57
2021/10/10 04:27:40;;;;;;;17.80;15.60;;;7.40;99.90;;;;;;5055869;28;20270;-57
2021/10/10 04:30:09;;;;;;;18.63;16.57;;;7.50;99.90;;;;;;5055501;28;20163;-57
2021/10/10 04:32:35;;;;;;;19.00;15.60;;;7.50;99.90;;;;;;5038027;28;20482;-56
2021/10/10 04:35:01;;;;;;;20.63;15.93;;;7.50;99.90;;;;;;5055770;28;20422;-58
2021/10/10 04:37:26;;;;;;;17.30;14.77;;;7.50;99.90;;;;;;5055791;28;20424;-58
2021/10/10 04:39:52;;;;;;;19.80;17.13;;;7.50;99.90;;;;;;5055238;28;20182;-55
2021/10/10 04:42:18;;;;;;;17.70;15.10;;;7.40;99.90;;;;;;5056118;28;20527;-57
2021/10/10 04:44:44;;;;;;;22.50;17.37;;;7.40;99.90;;;;;;5054970;28;20213;-58
2021/10/10 04:47:10;;;;;;;18.67;16.33;;;7.40;99.90;;;;;;5055639;28;20401;-57
2021/10/10 04:49:36;;;;;;;20.90;17.50;;;7.40;99.90;;;;;;5055655;28;20522;-57
2021/10/10 04:52:02;;;;;;;22.83;19.00;;;7.40;99.90;;;;;;5055816;28;20166;-57
2021/10/10 04:54:29;;;;;;;22.23;17.30;;;7.40;99.90;;;;;;5055153;28;20417;-57
2021/10/10 04:56:54;;;;;;;20.60;18.03;;;7.40;99.90;;;;;;5055236;28;20492;-58
2021/10/10 04:59:20;;;;;;;20.00;17.90;;;7.40;99.90;;;;;;5054772;28;20484;-56
2021/10/10 05:01:46;;;;;;;20.90;16.63;;;7.50;99.90;;;;;;5055562;28;20194;-57
2021/10/10 05:04:11;;;;;;;19.23;17.17;;;7.40;99.90;;;;;;5055397;28;20198;-57
2021/10/10 05:06:37;;;;;;;18.33;15.60;;;7.40;99.90;;;;;;5055297;28;20170;-57
2021/10/10 05:09:02;;;;;;;19.77;17.63;;;7.30;99.90;;;;;;5055351;28;20199;-57
2021/10/10 05:11:28;;;;;;;17.77;15.87;;;7.30;99.90;;;;;;5055126;28;20162;-56
2021/10/10 05:13:54;;;;;;;20.07;16.30;;;7.30;99.90;;;;;;5055285;28;20171;-58
2021/10/10 05:16:19;;;;;;;19.93;17.90;;;7.30;99.90;;;;;;5054020;28;20163;-57
2021/10/10 05:18:45;;;;;;;24.20;19.40;;;7.30;99.90;;;;;;5055484;28;20170;-56
2021/10/10 05:21:10;;;;;;;19.73;17.73;;;7.30;99.90;;;;;;5055159;28;20175;-57
2021/10/10 05:23:36;;;;;;;22.40;20.20;;;7.30;99.90;;;;;;5055409;28;20170;-57
2021/10/10 05:26:02;;;;;;;20.37;18.20;;;7.30;99.90;;;;;;5054852;28;20584;-55
2021/10/10 05:28:28;;;;;;;21.80;18.00;;;7.20;99.90;;;;;;5054772;28;20705;-57
2021/10/10 05:30:53;;;;;;;24.70;20.80;;;7.20;99.90;;;;;;5054386;28;20270;-55
2021/10/10 05:33:20;;;;;;;21.03;18.73;;;7.20;99.90;;;;;;5054663;28;20166;-55
2021/10/10 05:35:46;;;;;;;20.30;16.67;;;7.20;99.90;;;;;;5054492;28;20183;-56
2021/10/10 05:38:12;;;;;;;19.10;16.67;;;7.20;99.90;;;;;;5054564;28;20775;-57
2021/10/10 05:40:37;;;;;;;22.07;18.70;;;7.20;99.90;;;;;;5054961;28;20401;-56
2021/10/10 05:43:04;;;;;;;23.77;17.33;;;7.20;99.90;;;;;;5054642;28;20909;-57
2021/10/10 05:45:30;;;;;;;22.07;18.23;;;7.10;99.90;;;;;;5054121;28;20356;-58
2021/10/10 05:47:55;;;;;;;22.27;19.80;;;7.10;99.90;;;;;;5054051;28;20532;-57
2021/10/10 05:50:21;;;;;;;21.23;18.70;;;7.10;99.90;;;;;;5054294;28;20906;-59
2021/10/10 05:52:47;;;;;;;23.50;20.67;;;7.10;99.90;;;;;;5053714;28;20171;-57
2021/10/10 05:55:15;;;;;;;19.63;17.07;;;7.10;99.90;;;;;;5054291;28;20552;-57
2021/10/10 05:57:45;;;;;;;23.27;18.50;;;7.20;99.90;;;;;;5053164;28;20159;-56
2021/10/10 06:00:13;;;;;;;19.33;17.20;;;7.10;99.90;;;;;;5052562;28;20409;-58
2021/10/10 06:02:38;;;;;;;23.87;19.27;;;7.20;99.90;;;;;;5053620;28;20902;-56
2021/10/10 06:05:04;;;;;;;19.63;16.33;;;7.20;99.90;;;;;;5054188;28;20421;-56
2021/10/10 06:07:30;;;;;;;20.33;16.60;;;7.20;99.90;;;;;;5053706;28;20206;-58
2021/10/10 06:09:55;;;;;;;18.77;16.40;;;7.20;99.90;;;;;;5036003;28;20409;-58
2021/10/10 06:12:22;;;;;;;18.00;16.13;;;7.30;99.90;;;;;;5054075;28;20254;-57
2021/10/10 06:14:50;;;;;;;16.13;14.53;;;7.40;99.90;;;;;;5053683;28;20257;-56
2021/10/10 06:17:19;;;;;;;19.37;16.53;;;7.40;99.90;;;;;;5053471;28;20441;-57
2021/10/10 06:19:45;;;;;;;19.23;16.73;;;7.40;99.90;;;;;;5053606;28;20953;-58
2021/10/10 06:22:11;;;;;;;17.60;15.70;;;7.50;99.90;;;;;;5053995;28;20410;-58
2021/10/10 06:24:37;;;;;;;18.90;16.33;;;7.50;99.90;;;;;;5053627;28;20186;-56
2021/10/10 06:27:03;;;;;;;18.73;16.37;;;7.50;99.90;;;;;;5053764;28;20484;-58
2021/10/10 06:29:29;;;;;;;17.83;15.93;;;7.60;99.90;;;;;;5053494;28;20195;-58
2021/10/10 06:31:55;;;;;;;16.80;15.10;;;7.60;99.90;;;;;;5053312;28;20422;-58
2021/10/10 06:34:20;;;;;;;17.70;15.57;;;7.50;99.90;;;;;;5053464;28;20622;-56
2021/10/10 06:36:46;;;;;;;19.20;15.23;;;7.60;99.90;;;;;;5054082;28;20163;-54
2021/10/10 06:39:12;;;;;;;18.47;15.77;;;7.60;99.90;;;;;;5035462;28;20175;-56
2021/10/10 06:41:37;;;;;;;15.97;14.37;;;7.70;99.90;;;;;;5053335;28;20170;-57
2021/10/10 06:44:03;;;;;;;18.50;16.13;;;7.70;99.90;;;;;;5051178;28;20597;-57
2021/10/10 06:46:29;;;;;;;15.73;14.07;;;7.70;99.90;;;;;;5047468;28;20170;-58
2021/10/10 06:48:54;;;;;;;19.17;16.67;;;7.80;99.90;;;;;;5035478;28;20737;-58
2021/10/10 06:51:20;;;;;;;17.67;15.20;;;7.80;99.90;;;;;;5053699;28;20159;-58
2021/10/10 06:53:46;;;;;;;18.13;14.60;;;7.80;99.90;;;;;;5053246;28;20177;-57
2021/10/10 06:56:11;;;;;;;17.80;14.40;;;7.80;99.90;;;;;;5053376;28;20201;-58
2021/10/10 06:58:37;;;;;;;20.30;15.83;;;7.80;99.90;;;;;;5053404;28;20227;-53
2021/10/10 07:01:02;;;;;;;17.40;14.93;;;7.90;99.90;;;;;;5052808;28;20585;-55
2021/10/10 07:03:28;;;;;;;17.67;14.47;;;7.90;99.90;;;;;;5055941;28;20174;-54
2021/10/10 07:05:54;;;;;;;17.13;15.40;;;8.00;99.90;;;;;;5057359;28;20325;-56
2021/10/10 07:08:19;;;;;;;17.30;15.50;;;8.00;99.90;;;;;;5057616;28;20278;-56
2021/10/10 07:10:45;;;;;;;14.97;13.50;;;8.10;99.90;;;;;;5057721;28;20198;-53
2021/10/10 07:13:10;;;;;;;15.27;13.63;;;8.10;99.90;;;;;;5052474;28;20160;-54
2021/10/10 07:15:36;;;;;;;16.20;14.50;;;8.10;99.90;;;;;;5046848;28;20204;-53
2021/10/10 07:18:04;;;;;;;14.87;13.00;;;8.20;99.90;;;;;;5057700;28;20635;-55
2021/10/10 07:20:50;;;;;;;14.63;13.20;;;8.30;99.90;;;;;;5059194;28;20449;-55
2021/10/10 07:25:58;;;;;;;15.47;13.90;;;8.60;99.90;;;;;;5060202;28;20427;-55
2021/10/10 07:28:24;;;;;;;17.90;16.10;;;8.60;99.90;;;;;;5058032;28;20436;-57
2021/10/10 07:30:51;;;;;;;17.53;15.77;;;8.70;99.90;;;;;;5057938;28;20401;-58
2021/10/10 07:33:18;;;;;;;16.80;15.10;;;8.80;99.90;;;;;;5057316;28;20398;-57
2021/10/10 07:35:43;;;;;;;17.30;14.40;;;8.90;99.90;;;;;;5057179;28;20969;-54
2021/10/10 07:38:09;;;;;;;18.47;15.40;;;9.00;99.90;;;;;;5057574;28;20445;-58
2021/10/10 07:40:35;;;;;;;17.07;15.47;;;9.10;99.90;;;;;;5057413;28;20440;-57
2021/10/10 07:43:00;;;;;;;19.50;16.20;;;9.20;99.90;;;;;;5057888;28;20193;-56
2021/10/10 07:45:26;;;;;;;18.53;16.50;;;9.20;99.90;;;;;;5056992;28;20207;-57
2021/10/10 07:47:54;;;;;;;20.30;15.57;;;9.30;99.90;;;;;;5056757;28;20196;-56
2021/10/10 07:50:23;;;;;;;18.57;16.30;;;9.40;99.90;;;;;;5057497;28;20593;-54
2021/10/10 07:52:49;;;;;;;21.20;19.00;;;9.50;99.90;;;;;;5061761;28;20397;-54
2021/10/10 07:55:16;;;;;;;17.67;15.97;;;9.50;99.90;;;;;;5061290;28;20489;-53
2021/10/10 07:57:42;;;;;;;17.33;15.30;;;9.60;99.90;;;;;;5059818;28;20410;-56
2021/10/10 08:00:09;;;;;;;18.23;15.63;;;9.70;99.90;;;;;;5057552;28;20420;-56
2021/10/10 08:02:55;;;;;;;20.80;16.27;;;9.80;99.90;;;;;;5054610;28;20168;-53
2021/10/10 08:05:23;;;;;;;18.00;16.10;;;9.80;99.90;;;;;;5046822;28;20447;-57
2021/10/10 08:07:50;;;;;;;17.40;15.10;;;9.80;99.90;;;;;;5051528;28;20441;-53
2021/10/10 08:10:15;;;;;;;17.70;15.53;;;10.00;99.90;;;;;;5058469;28;20396;-55
2021/10/10 08:12:41;;;;;;;18.00;16.10;;;10.10;99.90;;;;;;5057838;28;20405;-58
2021/10/10 08:15:08;;;;;;;16.50;14.90;;;10.20;99.90;;;;;;5037402;28;20196;-57
2021/10/10 08:17:34;;;;;;;17.20;15.07;;;10.30;99.90;;;;;;5056006;28;20180;-54
2021/10/10 08:20:00;;;;;;;19.80;17.63;;;10.40;99.90;;;;;;5056924;28;20852;-55
2021/10/10 08:22:25;;;;;;;19.03;16.93;;;10.50;99.90;;;;;;5056199;28;20173;-54
2021/10/10 08:24:52;;;;;;;16.17;14.47;;;10.50;99.90;;;;;;5056723;28;20242;-55
2021/10/10 08:27:17;;;;;;;19.43;17.43;;;10.60;99.90;;;;;;5056370;28;20466;-52
2021/10/10 08:29:43;;;;;;;19.07;16.70;;;10.60;99.90;;;;;;5055988;28;20210;-56
2021/10/10 08:32:09;;;;;;;21.57;16.50;;;10.50;99.90;;;;;;5055842;28;20185;-54
2021/10/10 08:34:37;;;;;;;18.93;16.90;;;10.50;99.90;;;;;;5056481;28;20557;-58
2021/10/10 08:37:03;;;;;;;18.90;15.50;;;10.40;99.90;;;;;;5056056;28;20170;-58
2021/10/10 08:39:29;;;;;;;19.70;17.27;;;10.40;99.90;;;;;;5055811;28;20433;-55
2021/10/10 08:41:57;;;;;;;18.23;16.23;;;10.40;99.90;;;;;;5055768;28;20447;-57
2021/10/10 08:47:01;;;;;;;20.07;15.70;;;10.80;99.90;;;;;;5074152;28;20459;-55
2021/10/10 08:49:29;;;;;;;19.37;17.27;;;11.00;99.90;;;;;;5056186;28;20453;-57
2021/10/10 08:51:54;;;;;;;18.80;15.20;;;11.00;99.90;;;;;;5075120;28;20399;-58
2021/10/10 08:54:20;;;;;;;21.10;16.93;;;11.10;99.90;;;;;;5075243;28;20464;-55
2021/10/10 08:56:46;;;;;;;18.60;14.67;;;11.30;99.90;;;;;;5075143;28;20183;-54
2021/10/10 08:59:12;;;;;;;18.80;16.90;;;11.40;99.90;;;;;;5075476;28;20162;-55
2021/10/10 09:01:38;;;;;;;17.90;15.43;;;11.30;99.90;;;;;;5074740;28;20764;-57
2021/10/10 09:04:04;;;;;;;20.30;15.20;;;11.50;99.90;;;;;;5075206;28;20413;-57
2021/10/10 09:06:34;;;;;;;17.97;14.20;;;11.30;99.90;;;;;;5074867;28;20424;-57
2021/10/10 09:09:27;;;;;;;19.10;15.07;;;11.50;99.90;;;;;;5075036;28;20225;-56
2021/10/10 09:12:17;;;;;;;18.27;15.63;;;11.60;99.90;;;;;;5066950;28;20416;-53
2021/10/10 09:14:48;;;;;;;18.37;16.43;;;11.60;99.90;;;;;;5073837;28;20436;-53
2021/10/10 09:17:19;;;;;;;19.63;15.90;;;11.60;99.90;;;;;;5074864;28;20900;-54
2021/10/10 09:19:57;;;;;;;19.60;16.73;;;11.80;99.90;;;;;;5074839;28;20461;-52
2021/10/10 09:22:24;;;;;;;21.27;16.20;;;11.90;99.90;;;;;;5074899;28;20397;-52
2021/10/10 09:24:51;;;;;;;18.17;16.20;;;12.10;99.90;;;;;;5074520;28;20762;-51
2021/10/10 09:27:19;;;;;;;21.30;17.70;;;12.00;99.90;;;;;;5074533;28;20415;-55
2021/10/10 09:29:47;;;;;;;18.97;14.83;;;12.00;99.90;;;;;;5074166;28;20880;-51
2021/10/10 09:32:18;;;;;;;16.40;14.70;;;12.00;99.90;;;;;;5074328;28;20919;-51
2021/10/10 09:34:45;;;;;;;16.50;13.80;;;12.00;99.90;;;;;;5074030;28;20424;-51
2021/10/10 09:37:37;;;;;;;18.40;15.77;;;12.20;99.90;;;;;;5074315;28;20427;-55
2021/10/10 09:40:25;;;;;;;21.73;16.50;;;12.30;99.90;;;;;;5073566;28;20423;-56
2021/10/10 09:42:53;;;;;;;21.90;14.80;;;12.60;99.90;;;;;;5074534;28;20964;-54
2021/10/10 09:45:41;;;;;;;19.43;17.03;;;12.50;99.90;;;;;;5073804;28;20477;-56
2021/10/10 09:48:07;;;;;;;19.23;15.70;;;12.60;99.90;;;;;;5073826;28;20443;-57
2021/10/10 09:50:37;;;;;;;16.77;14.97;;;12.60;99.90;;;;;;5074750;28;20916;-57
2021/10/10 09:53:11;;;;;;;16.43;14.70;;;12.70;99.90;;;;;;5073977;28;20940;-58
2021/10/10 09:55:52;;;;;;;23.97;13.70;;;13.10;99.90;;;;;;5074123;28;20502;-58
2021/10/10 09:58:39;;;;;;;16.60;14.90;;;13.00;99.90;;;;;;5074211;28;20421;-56
2021/10/10 10:01:15;;;;;;;17.87;14.10;;;13.00;99.90;;;;;;5073605;28;20392;-56
2021/10/10 10:04:03;;;;;;;17.47;14.00;;;13.20;99.90;;;;;;5064513;28;20455;-54
2021/10/10 10:06:31;;;;;;;17.80;14.17;;;13.40;99.90;;;;;;5053710;28;20431;-54
2021/10/10 10:09:02;;;;;;;17.10;14.77;;;13.30;99.90;;;;;;5053660;28;20437;-54
2021/10/10 10:11:31;;;;;;;16.17;12.37;;;13.30;99.90;;;;;;5053869;28;20386;-57
2021/10/10 10:14:02;;;;;;;20.33;13.77;;;13.40;99.90;;;;;;5053488;28;20928;-56
2021/10/10 10:16:29;;;;;;;17.00;13.20;;;13.70;99.90;;;;;;5069398;28;20937;-56
2021/10/10 10:18:57;;;;;;;15.50;13.60;;;13.70;99.90;;;;;;5073613;28;20443;-55
2021/10/10 10:21:23;;;;;;;17.97;15.40;;;13.60;99.90;;;;;;5072781;28;20424;-54
2021/10/10 10:23:50;;;;;;;18.33;13.37;;;13.60;99.90;;;;;;5073588;28;20759;-55
2021/10/10 10:26:16;;;;;;;17.00;15.20;;;13.60;99.90;;;;;;5074365;28;20978;-57
2021/10/10 10:28:43;;;;;;;16.47;13.97;;;13.60;99.90;;;;;;5073161;28;20471;-53
2021/10/10 10:31:12;;;;;;;18.50;16.23;;;13.60;99.90;;;;;;5073045;28;20928;-57
2021/10/10 10:33:38;;;;;;;16.87;15.17;;;13.70;99.90;;;;;;5072931;28;20409;-56
2021/10/10 10:36:04;;;;;;;25.27;21.30;;;13.70;99.90;;;;;;5072947;28;20431;-58
2021/10/10 10:38:43;;;;;;;19.30;15.77;;;13.90;99.90;;;;;;5072575;28;20176;-55
2021/10/10 10:41:51;;;;;;;16.03;14.40;;;14.20;99.90;;;;;;5073200;28;20202;-55
2021/10/10 10:44:40;;;;;;;16.63;14.47;;;14.20;99.90;;;;;;5073177;28;20389;-57
2021/10/10 10:47:13;;;;;;;19.10;14.47;;;14.10;99.90;;;;;;5072451;28;20399;-53
2021/10/10 10:49:51;;;;;;;17.73;14.80;;;14.20;99.90;;;;;;5073267;28;20444;-55
2021/10/10 10:52:23;;;;;;;16.23;14.40;;;14.20;99.90;;;;;;5072801;28;20448;-56
2021/10/10 10:54:52;;;;;;;23.70;14.37;;;14.30;99.90;;;;;;5073212;28;20955;-56
2021/10/10 10:57:32;;;;;;;16.50;13.93;;;14.40;99.90;;;;;;5072033;28;20425;-56
2021/10/10 11:00:09;;;;;;;15.90;14.07;;;15.20;99.90;;;;;;5057197;28;20493;-56
2021/10/10 11:02:53;;;;;;;16.40;13.50;;;16.20;99.90;;;;;;5053023;28;20391;-56
2021/10/10 11:05:37;;;;;;;15.20;13.30;;;18.30;98.00;;;;;;5072090;28;20438;-57
2021/10/10 11:08:04;;;;;;;16.93;15.23;;;19.60;94.90;;;;;;5073004;28;20447;-56
2021/10/10 11:10:31;;;;;;;14.93;12.90;;;19.20;94.40;;;;;;5072589;28;20404;-58
2021/10/10 11:13:06;;;;;;;15.17;13.27;;;20.10;93.10;;;;;;5073251;28;20469;-55
2021/10/10 11:15:52;;;;;;;17.67;13.77;;;19.70;93.30;;;;;;5070059;28;20456;-51
2021/10/10 11:18:19;;;;;;;16.10;14.47;;;19.40;93.00;;;;;;5052354;28;20409;-57
2021/10/10 11:20:57;;;;;;;15.97;14.30;;;20.10;91.80;;;;;;5053900;28;20409;-54
2021/10/10 11:23:24;;;;;;;17.60;13.07;;;20.20;91.70;;;;;;5072481;28;20396;-56
2021/10/10 11:25:54;;;;;;;15.83;13.07;;;21.00;90.40;;;;;;5072706;28;20460;-53
2021/10/10 11:28:44;;;;;;;15.53;13.40;;;21.70;89.60;;;;;;5072706;28;20449;-58
2021/10/10 11:31:14;;;;;;;16.63;12.83;;;22.50;86.50;;;;;;5072646;28;20439;-57
2021/10/10 11:33:45;;;;;;;16.33;13.67;;;22.80;82.10;;;;;;5072357;28;20913;-52
2021/10/10 11:36:12;;;;;;;15.23;13.57;;;22.90;81.80;;;;;;5072735;28;20522;-53
2021/10/10 11:38:58;;;;;;;15.63;14.03;;;23.00;79.80;;;;;;5072439;28;20416;-53
2021/10/10 11:41:26;;;;;;;13.90;12.23;;;23.60;78.50;;;;;;5072822;28;20416;-50
2021/10/10 11:44:01;;;;;;;15.97;12.67;;;23.00;77.20;;;;;;5072427;28;20447;-51
2021/10/10 11:46:56;;;;;;;18.50;16.70;;;24.40;77.00;;;;;;5071860;28;20447;-54
2021/10/10 11:49:25;;;;;;;19.03;14.40;;;25.60;70.60;;;;;;5072572;28;20463;-55
2021/10/10 11:51:51;;;;;;;14.90;13.30;;;24.10;72.10;;;;;;5076354;28;20479;-54
2021/10/10 11:54:26;;;;;;;13.00;11.53;;;24.40;71.90;;;;;;5076205;28;20896;-54
2021/10/10 11:56:59;;;;;;;13.00;11.40;;;23.80;70.40;;;;;;5076033;28;20404;-57
2021/10/10 11:59:25;;;;;;;12.60;10.43;;;23.80;72.50;;;;;;5076073;28;20412;-57
2021/10/10 12:01:55;;;;;;;14.30;10.33;;;25.20;68.90;;;;;;5075628;28;20912;-54
2021/10/10 12:04:22;;;;;;;12.87;11.47;;;26.20;67.00;;;;;;5075880;28;20960;-54
2021/10/10 12:06:49;;;;;;;14.88;11.98;;;24.20;69.00;;;;;;5076006;28;20426;-54
2021/10/10 12:09:16;;;;;;;12.67;11.37;;;24.30;67.40;;;;;;5057866;28;20197;-55
2021/10/10 12:12:01;;;;;;;12.33;11.10;;;23.30;69.90;;;;;;5075574;28;20392;-53
2021/10/10 12:14:43;;;;;;;12.97;11.63;;;24.30;69.20;;;;;;5072243;28;20396;-52
2021/10/10 12:17:08;;;;;;;12.33;11.10;;;24.90;65.40;;;;;;5075413;28;20728;-56
2021/10/10 12:19:43;;;;;;;12.73;11.43;;;24.90;66.80;;;;;;5075863;28;20462;-54
2021/10/10 12:22:09;;;;;;;14.50;11.03;;;25.80;62.30;;;;;;5075636;28;20256;-52
2021/10/10 12:24:43;;;;;;;13.23;11.70;;;25.10;62.50;;;;;;5075546;28;20802;-56
2021/10/10 12:27:09;;;;;;;13.10;9.80;;;25.50;61.20;;;;;;5075678;28;20400;-56
2021/10/10 12:29:41;;;;;;;11.27;9.57;;;26.60;61.00;;;;;;5075505;28;20455;-57
2021/10/10 12:32:43;;;;;;;11.13;9.93;;;27.00;59.90;;;;;;5075355;28;20630;-57
2021/10/10 12:35:16;;;;;;;12.70;11.30;;;27.80;57.20;;;;;;4993936;28;20439;-56
2021/10/10 12:38:00;;;;;;;12.30;10.97;;;26.60;57.50;;;;;;5063079;28;20416;-56
2021/10/10 12:40:30;;;;;;;11.80;10.70;;;27.10;58.20;;;;;;5074981;28;20858;-57
2021/10/10 12:42:57;;;;;;;10.80;9.70;;;28.10;56.30;;;;;;5075463;28;20400;-57
2021/10/10 12:47:59;;;;;;;10.63;9.57;;;29.00;53.90;;;;;;5075059;28;20455;-58